createdAt,value
2018-02-23T00:00:00.710Z,8.03
2018-02-23T00:02:28.968Z,7.50
2018-02-23T00:04:58.005Z,9.53
2018-02-23T00:07:26.264Z,8.40
2018-02-23T00:09:55.308Z,7.07
2018-02-23T00:12:23.555Z,4.43
2018-02-23T00:14:52.601Z,10.07
2018-02-23T00:17:20.872Z,11.13
2018-02-23T00:19:49.143Z,5.83
2018-02-23T00:22:18.163Z,8.17
2018-02-23T00:24:46.448Z,8.07
2018-02-23T00:27:15.478Z,6.63
2018-02-23T00:29:43.768Z,7.40
2018-02-23T00:32:12.030Z,6.20
2018-02-23T00:34:41.082Z,6.47
2018-02-23T00:37:09.350Z,8.40
2018-02-23T00:39:37.612Z,6.93
2018-02-23T00:42:06.644Z,6.73
2018-02-23T00:44:34.914Z,7.40
2018-02-23T00:47:03.936Z,6.33
2018-02-23T00:49:32.221Z,6.27
2018-02-23T00:52:00.471Z,5.37
2018-02-23T00:54:28.743Z,6.97
2018-02-23T00:56:57.008Z,9.73
2018-02-23T00:59:25.287Z,9.57
2018-02-23T01:01:53.544Z,8.33
2018-02-23T01:04:22.580Z,7.47
2018-02-23T01:06:50.842Z,9.70
2018-02-23T01:09:19.884Z,7.83
2018-02-23T01:11:48.159Z,8.87
2018-02-23T01:14:16.435Z,7.73
2018-02-23T01:16:45.455Z,6.60
2018-02-23T01:19:14.498Z,7.63
2018-02-23T01:21:42.767Z,8.50
2018-02-23T01:24:11.042Z,11.60
2018-02-23T01:26:39.301Z,7.20
2018-02-23T01:29:08.340Z,6.90
2018-02-23T01:31:36.592Z,9.63
2018-02-23T01:34:04.861Z,7.53
2018-02-23T01:36:33.116Z,9.73
2018-02-23T01:39:01.389Z,7.33
2018-02-23T01:41:29.683Z,5.37
2018-02-23T01:43:57.965Z,7.27
2018-02-23T01:46:26.996Z,7.63
2018-02-23T01:48:55.269Z,7.13
2018-02-23T01:51:23.528Z,6.80
2018-02-23T01:53:51.819Z,6.63
2018-02-23T01:56:20.080Z,8.53
2018-02-23T01:58:49.112Z,7.13
2018-02-23T02:01:17.374Z,9.43
2018-02-23T02:03:45.641Z,7.87
2018-02-23T02:06:13.946Z,8.50
2018-02-23T02:08:42.730Z,9.87
2018-02-23T02:11:10.996Z,9.20
2018-02-23T02:13:40.048Z,7.10
2018-02-23T02:16:08.320Z,13.37
2018-02-23T02:18:36.571Z,7.50
2018-02-23T02:21:04.844Z,8.27
2018-02-23T02:23:33.096Z,12.67
2018-02-23T02:26:01.380Z,8.10
2018-02-23T02:28:29.642Z,7.53
2018-02-23T02:30:57.920Z,15.47
2018-02-23T02:33:26.197Z,7.10
2018-02-23T02:35:55.224Z,9.53
2018-02-23T02:38:23.481Z,10.80
2018-02-23T02:40:51.806Z,8.87
2018-02-23T02:43:20.068Z,9.27
2018-02-23T02:45:49.104Z,8.00
2018-02-23T02:48:17.369Z,11.33
2018-02-23T02:50:46.429Z,8.40
2018-02-23T02:53:14.701Z,9.67
2018-02-23T02:55:43.015Z,8.70
2018-02-23T02:58:11.287Z,9.70
2018-02-23T03:00:39.553Z,10.30
2018-02-23T03:03:07.806Z,6.77
2018-02-23T03:05:36.074Z,8.60
2018-02-23T03:08:04.337Z,12.33
2018-02-23T03:10:32.604Z,10.13
2018-02-23T03:13:00.875Z,11.33
2018-02-23T03:15:29.963Z,10.30
2018-02-23T03:17:58.237Z,7.83
2018-02-23T03:20:26.517Z,8.07
2018-02-23T03:22:54.783Z,9.13
2018-02-23T03:25:23.063Z,11.63
2018-02-23T03:27:51.315Z,9.13
2018-02-23T03:30:19.581Z,8.60
2018-02-23T03:32:47.840Z,9.07
2018-02-23T03:35:16.113Z,10.93
2018-02-23T03:37:44.368Z,8.10
2018-02-23T03:40:13.422Z,9.87
2018-02-23T03:42:41.685Z,8.23
2018-02-23T03:45:10.730Z,9.00
2018-02-23T03:47:38.981Z,9.77
2018-02-23T03:50:08.389Z,8.77
2018-02-23T03:52:36.635Z,9.00
2018-02-23T03:55:04.916Z,7.87
2018-02-23T03:57:33.177Z,7.50
2018-02-23T04:00:01.417Z,10.23
2018-02-23T04:02:29.691Z,11.03
2018-02-23T04:04:58.705Z,12.70
2018-02-23T04:07:26.980Z,12.83
2018-02-23T04:09:55.237Z,11.77
2018-02-23T04:12:23.592Z,8.13
2018-02-23T04:14:51.844Z,8.33
2018-02-23T04:17:20.152Z,11.57
2018-02-23T04:19:48.425Z,5.93
2018-02-23T04:22:16.708Z,7.83
2018-02-23T04:24:44.978Z,10.33
2018-02-23T04:27:13.292Z,12.77
2018-02-23T04:29:41.581Z,7.83
2018-02-23T04:32:09.843Z,13.23
2018-02-23T04:34:38.092Z,11.00
2018-02-23T04:37:06.360Z,10.03
2018-02-23T04:39:34.616Z,7.87
2018-02-23T04:42:02.879Z,10.33
2018-02-23T04:44:32.644Z,11.97
2018-02-23T04:47:00.920Z,5.87
2018-02-23T04:49:29.176Z,12.10
2018-02-23T04:51:57.454Z,8.87
2018-02-23T04:54:25.720Z,10.97
2018-02-23T04:56:53.995Z,11.57
2018-02-23T04:59:22.247Z,9.77
2018-02-23T05:01:50.556Z,4.87
2018-02-23T05:04:18.807Z,12.43
2018-02-23T05:06:47.878Z,10.80
2018-02-23T05:09:16.141Z,7.77
2018-02-23T05:11:44.432Z,12.50
2018-02-23T05:14:12.823Z,10.97
2018-02-23T05:16:41.094Z,10.47
2018-02-23T05:19:09.351Z,8.93
2018-02-23T05:21:37.630Z,10.37
2018-02-23T05:24:05.888Z,12.10
2018-02-23T05:26:34.143Z,9.73
2018-02-23T05:29:03.192Z,9.63
2018-02-23T05:31:31.470Z,14.90
2018-02-23T05:33:59.741Z,11.67
2018-02-23T05:36:28.013Z,11.13
2018-02-23T05:38:57.028Z,11.23
2018-02-23T05:41:26.073Z,8.80
2018-02-23T05:43:54.434Z,12.13
2018-02-23T05:46:22.699Z,11.07
2018-02-23T05:48:50.950Z,11.27
2018-02-23T05:51:19.260Z,11.37
2018-02-23T05:53:47.516Z,15.47
2018-02-23T05:56:15.791Z,11.23
2018-02-23T05:58:44.069Z,11.60
2018-02-23T06:01:12.382Z,11.27
2018-02-23T06:03:40.682Z,13.87
2018-02-23T06:06:08.931Z,14.70
2018-02-23T06:08:37.962Z,10.70
2018-02-23T06:11:06.244Z,13.17
2018-02-23T06:13:34.514Z,12.53
2018-02-23T06:16:09.127Z,10.07
2018-02-23T06:18:43.000Z,12.93
2018-02-23T06:21:11.305Z,12.07
2018-02-23T06:23:39.582Z,8.87
2018-02-23T06:26:07.841Z,11.47
2018-02-23T06:28:37.636Z,12.57
2018-02-23T06:31:05.943Z,15.20
2018-02-23T06:33:34.208Z,17.10
2018-02-23T06:36:02.483Z,15.50
2018-02-23T06:38:30.772Z,8.00
2018-02-23T06:40:59.047Z,11.97
2018-02-23T06:43:27.323Z,8.60
2018-02-23T06:45:55.592Z,10.87
2018-02-23T06:48:24.632Z,11.33
2018-02-23T06:50:52.879Z,14.70
2018-02-23T06:53:22.688Z,14.27
2018-02-23T06:55:50.967Z,11.73
2018-02-23T06:58:19.248Z,13.23
2018-02-23T07:00:47.540Z,15.97
2018-02-23T07:03:15.811Z,11.77
2018-02-23T07:05:44.092Z,12.30
2018-02-23T07:08:12.465Z,14.47
2018-02-23T07:10:41.565Z,15.77
2018-02-23T07:13:09.888Z,8.63
2018-02-23T07:15:38.144Z,11.20
2018-02-23T07:18:07.185Z,9.20
2018-02-23T07:20:36.231Z,10.33
2018-02-23T07:23:04.501Z,16.03
2018-02-23T07:25:32.776Z,11.07
2018-02-23T07:28:01.828Z,10.50
2018-02-23T07:30:30.887Z,12.60
2018-02-23T07:32:59.160Z,14.77
2018-02-23T07:35:28.209Z,12.77
2018-02-23T07:37:56.496Z,16.73
2018-02-23T07:40:24.836Z,14.53
2018-02-23T07:42:53.211Z,14.77
2018-02-23T07:45:22.408Z,13.90
2018-02-23T07:47:50.880Z,12.90
2018-02-23T07:50:19.272Z,16.13
2018-02-23T07:52:48.401Z,13.47
2018-02-23T07:55:16.725Z,11.03
2018-02-23T07:57:45.904Z,14.67
2018-02-23T08:00:14.274Z,14.37
2018-02-23T08:02:42.599Z,14.23
2018-02-23T08:05:12.360Z,14.50
2018-02-23T08:07:40.703Z,14.23
2018-02-23T08:10:10.119Z,18.13
2018-02-23T08:12:39.406Z,13.63
2018-02-23T08:15:11.114Z,15.50
2018-02-23T08:17:40.221Z,16.53
2018-02-23T08:20:09.415Z,18.80
2018-02-23T08:22:37.849Z,11.93
2018-02-23T08:25:06.142Z,17.80
2018-02-23T08:27:35.125Z,15.83
2018-02-23T08:30:04.261Z,16.60
2018-02-23T08:32:32.603Z,11.00
2018-02-23T08:35:02.459Z,15.70
2018-02-23T08:37:30.893Z,15.80
2018-02-23T08:39:59.279Z,15.07
2018-02-23T08:42:27.560Z,12.63
2018-02-23T08:44:55.872Z,14.27
2018-02-23T08:47:24.249Z,18.43
2018-02-23T08:49:52.579Z,16.90
2018-02-23T08:52:20.855Z,15.67
2018-02-23T08:54:49.321Z,17.93
2018-02-23T08:57:17.800Z,11.33
2018-02-23T08:59:46.344Z,16.03
2018-02-23T09:02:14.832Z,9.47
2018-02-23T09:04:43.215Z,19.17
2018-02-23T09:07:11.831Z,16.97
2018-02-23T09:09:40.164Z,17.73
2018-02-23T09:12:08.916Z,15.57
2018-02-23T09:14:37.479Z,13.87
2018-02-23T09:17:05.804Z,16.27
2018-02-23T09:19:34.287Z,20.17
2018-02-23T09:22:02.622Z,16.07
2018-02-23T09:24:31.004Z,17.00
2018-02-23T09:27:00.065Z,17.00
2018-02-23T09:29:28.401Z,11.43
2018-02-23T09:31:56.719Z,18.33
2018-02-23T09:34:46.139Z,14.40
2018-02-23T09:37:14.488Z,19.80
2018-02-23T09:39:42.820Z,17.40
2018-02-23T09:42:11.148Z,14.50
2018-02-23T09:44:40.341Z,19.87
2018-02-23T09:47:08.636Z,18.57
2018-02-23T09:49:36.983Z,20.00
2018-02-23T09:52:05.280Z,16.17
2018-02-23T09:54:33.566Z,16.67
2018-02-23T09:57:01.845Z,17.20
2018-02-23T09:59:30.170Z,16.00
2018-02-23T10:01:58.506Z,19.70
2018-02-23T10:04:26.828Z,19.80
2018-02-23T10:06:55.283Z,23.17
2018-02-23T10:09:24.369Z,16.43
2018-02-23T10:11:52.645Z,17.77
2018-02-23T10:14:20.968Z,16.03
2018-02-23T10:16:50.015Z,19.53
2018-02-23T10:19:18.386Z,19.43
2018-02-23T10:21:47.362Z,16.77
2018-02-23T10:24:16.499Z,17.63
2018-02-23T10:26:44.800Z,18.70
2018-02-23T10:29:13.223Z,14.77
2018-02-23T10:31:41.624Z,17.60
2018-02-23T10:34:09.931Z,16.23
2018-02-23T10:36:38.982Z,19.00
2018-02-23T10:39:08.168Z,16.40
2018-02-23T10:41:36.518Z,15.33
2018-02-23T10:44:04.855Z,15.07
2018-02-23T10:46:33.261Z,16.60
2018-02-23T10:49:01.729Z,20.57
2018-02-23T10:51:30.910Z,24.13
2018-02-23T10:53:59.559Z,26.90
2018-02-23T10:56:27.947Z,19.07
2018-02-23T10:58:57.044Z,18.13
2018-02-23T11:01:25.429Z,19.57
2018-02-23T11:03:54.781Z,18.63
2018-02-23T11:06:23.397Z,17.03
2018-02-23T11:08:51.729Z,18.40
2018-02-23T11:11:20.014Z,18.03
2018-02-23T11:13:49.352Z,26.80
2018-02-23T11:16:17.794Z,25.23
2018-02-23T11:18:46.214Z,18.00
2018-02-23T11:21:15.605Z,25.23
2018-02-23T11:23:43.912Z,21.17
2018-02-23T11:26:13.030Z,21.33
2018-02-23T11:28:42.197Z,17.63
2018-02-23T11:31:10.506Z,19.27
2018-02-23T11:33:38.941Z,14.53
2018-02-23T11:36:07.452Z,19.73
2018-02-23T11:38:35.760Z,14.40
2018-02-23T11:41:04.053Z,18.60
2018-02-23T11:43:32.404Z,21.17
2018-02-23T11:46:00.865Z,20.80
2018-02-23T11:48:29.195Z,22.00
2018-02-23T11:50:57.480Z,19.60
2018-02-23T11:53:25.934Z,15.70
2018-02-23T11:55:54.359Z,21.23
2018-02-23T11:58:22.661Z,17.97
2018-02-23T12:00:51.033Z,19.17
2018-02-23T12:03:19.495Z,16.83
2018-02-23T12:05:47.780Z,19.97
2018-02-23T12:08:16.347Z,20.63
2018-02-23T12:10:44.843Z,23.13
2018-02-23T12:13:13.487Z,20.37
2018-02-23T12:15:42.628Z,22.57
2018-02-23T12:18:10.897Z,22.20
2018-02-23T12:20:39.225Z,20.70
2018-02-23T12:23:07.597Z,19.63
2018-02-23T12:25:36.007Z,20.03
2018-02-23T12:28:04.269Z,16.50
2018-02-23T12:30:32.776Z,27.07
2018-02-23T12:33:01.053Z,18.27
2018-02-23T12:35:29.362Z,24.13
2018-02-23T12:37:58.605Z,18.90
2018-02-23T12:40:27.904Z,20.97
2018-02-23T12:42:56.213Z,18.43
2018-02-23T12:45:24.616Z,21.83
2018-02-23T12:47:52.890Z,24.07
2018-02-23T12:50:21.218Z,20.73
2018-02-23T12:52:50.304Z,19.30
2018-02-23T12:55:18.911Z,21.63
2018-02-23T12:57:48.010Z,16.57
2018-02-23T13:00:16.309Z,20.73
2018-02-23T13:02:45.436Z,23.53
2018-02-23T13:05:14.482Z,20.33
2018-02-23T13:07:42.880Z,22.17
2018-02-23T13:10:11.925Z,22.33
2018-02-23T13:12:41.006Z,16.37
2018-02-23T13:15:14.761Z,21.67
2018-02-23T13:17:43.888Z,21.93
2018-02-23T13:20:12.404Z,16.97
2018-02-23T13:22:40.741Z,22.23
2018-02-23T13:25:09.185Z,29.20
2018-02-23T13:27:37.472Z,20.17
2018-02-23T13:30:06.008Z,20.53
2018-02-23T13:32:34.298Z,23.43
2018-02-23T13:35:02.629Z,21.87
2018-02-23T13:37:31.025Z,22.43
2018-02-23T13:39:59.292Z,26.00
2018-02-23T13:42:28.339Z,22.97
2018-02-23T13:44:56.629Z,26.73
2018-02-23T13:47:24.950Z,22.50
2018-02-23T13:49:53.229Z,20.27
2018-02-23T13:52:22.370Z,19.13
2018-02-23T13:54:52.683Z,19.50
2018-02-23T13:57:21.723Z,22.50
2018-02-23T13:59:50.748Z,17.17
2018-02-23T14:02:19.028Z,21.50
2018-02-23T14:04:47.374Z,20.30
2018-02-23T14:07:21.134Z,22.03
2018-02-23T14:09:50.152Z,21.10
2018-02-23T14:12:18.450Z,21.57
2018-02-23T14:14:47.495Z,19.00
2018-02-23T14:17:15.927Z,22.40
2018-02-23T14:19:44.347Z,20.30
2018-02-23T14:22:12.882Z,20.17
2018-02-23T14:24:41.214Z,26.50
2018-02-23T14:27:09.534Z,19.17
2018-02-23T14:29:37.807Z,21.87
2018-02-23T14:32:06.104Z,23.43
2018-02-23T14:34:34.497Z,19.77
2018-02-23T15:55:23.717Z,16.63
2018-02-23T15:57:56.812Z,22.13
2018-02-23T16:00:25.388Z,20.80
2018-02-23T16:02:53.937Z,19.57
2018-02-23T16:05:23.067Z,22.73
2018-02-23T16:07:52.616Z,17.53
2018-02-23T16:10:22.912Z,22.83
2018-02-23T16:12:52.579Z,17.17
2018-02-23T16:15:21.326Z,21.13
2018-02-23T16:17:52.045Z,19.87
2018-02-23T16:20:20.482Z,21.80
2018-02-23T16:22:49.591Z,18.03
2018-02-23T16:25:18.012Z,17.33
2018-02-23T16:27:46.864Z,23.53
2018-02-23T16:30:15.378Z,21.07
2018-02-23T16:32:44.181Z,22.20
2018-02-23T16:35:12.668Z,23.57
2018-02-23T16:37:41.950Z,22.57
2018-02-23T16:40:10.257Z,19.33
2018-02-23T16:42:38.560Z,22.77
2018-02-23T16:45:06.954Z,23.73
2018-02-23T16:47:35.285Z,18.90
2018-02-23T16:50:03.647Z,21.27
2018-02-23T16:52:32.755Z,17.90
2018-02-23T16:55:01.980Z,21.27
2018-02-23T16:57:31.354Z,23.83
2018-02-23T17:00:00.805Z,21.27
2018-02-23T17:02:29.460Z,20.47
2018-02-23T17:04:58.212Z,19.67
2018-02-23T17:07:26.957Z,20.23
2018-02-23T17:09:55.409Z,19.97
2018-02-23T17:12:23.936Z,18.73
2018-02-23T17:14:53.246Z,20.63
2018-02-23T17:17:22.855Z,21.10
2018-02-23T17:19:51.612Z,24.17
2018-02-23T17:22:21.007Z,19.93
2018-02-23T17:24:49.534Z,20.80
2018-02-23T17:27:19.184Z,24.43
2018-02-23T17:29:47.870Z,21.80
2018-02-23T17:32:16.688Z,18.97
2018-02-23T17:34:45.640Z,20.87
2018-02-23T17:37:14.775Z,23.17
2018-02-23T17:39:43.727Z,18.07
2018-02-23T17:42:12.574Z,20.80
2018-02-23T17:44:42.175Z,21.23
2018-02-23T17:47:11.815Z,17.93
2018-02-23T17:49:41.154Z,22.77
2018-02-23T17:52:09.706Z,20.40
2018-02-23T17:54:38.504Z,20.53
2018-02-23T17:57:08.401Z,19.23
2018-02-23T17:59:37.016Z,24.13
2018-02-23T18:02:05.420Z,22.40
2018-02-23T18:04:34.205Z,22.13
2018-02-23T18:07:02.801Z,16.10
2018-02-23T18:09:31.527Z,19.70
2018-02-23T18:12:01.518Z,21.50
2018-02-23T18:14:30.336Z,18.40
2018-02-23T18:16:59.594Z,16.73
2018-02-23T18:19:28.079Z,20.83
2018-02-23T18:21:57.576Z,19.13
2018-02-23T18:24:26.164Z,24.43
2018-02-23T18:26:54.560Z,17.93
2018-02-23T18:29:23.546Z,18.67
2018-02-23T18:31:52.065Z,19.50
2018-02-23T18:34:21.233Z,20.87
2018-02-23T18:36:49.582Z,17.43
2018-02-23T18:39:18.001Z,22.13
2018-02-23T18:41:46.371Z,22.67
2018-02-23T18:44:15.568Z,19.27
2018-02-23T18:46:43.951Z,21.63
2018-02-23T18:49:12.475Z,18.57
2018-02-23T18:51:40.833Z,21.50
2018-02-23T18:54:09.189Z,17.63
2018-02-23T18:56:37.537Z,24.33
2018-02-23T18:59:06.700Z,23.23
2018-02-23T19:01:35.134Z,23.70
2018-02-23T19:04:04.396Z,22.67
2018-02-23T19:06:32.692Z,22.33
2018-02-23T19:09:01.080Z,19.20
2018-02-23T19:11:29.763Z,19.00
2018-02-23T19:13:58.089Z,22.23
2018-02-23T19:16:26.402Z,25.50
2018-02-23T19:18:55.452Z,19.03
2018-02-23T19:21:23.864Z,19.97
2018-02-23T19:23:52.534Z,20.30
2018-02-23T19:26:20.826Z,17.80
2018-02-23T19:28:49.235Z,19.23
2018-02-23T19:31:18.661Z,22.17
2018-02-23T19:33:47.198Z,21.63
2018-02-23T19:36:15.614Z,22.47
2018-02-23T19:38:44.262Z,21.37
2018-02-23T19:41:12.895Z,24.03
2018-02-23T19:43:42.135Z,21.27
2018-02-23T19:46:10.704Z,20.70
2018-02-23T19:48:39.157Z,21.57
2018-02-23T19:51:07.518Z,19.90
2018-02-23T19:53:35.895Z,17.80
2018-02-23T19:56:04.224Z,18.27
2018-02-23T19:58:32.664Z,18.70
2018-02-23T20:01:01.087Z,24.20
2018-02-23T20:03:29.390Z,17.60
2018-02-23T20:05:57.738Z,25.67
2018-02-23T20:08:26.860Z,22.40
2018-02-23T20:10:55.360Z,20.37
2018-02-23T20:13:23.790Z,15.40
2018-02-23T20:15:52.186Z,20.23
2018-02-23T20:18:20.554Z,24.87
2018-02-23T20:20:49.086Z,22.40
2018-02-23T20:23:17.582Z,18.27
2018-02-23T20:25:46.196Z,23.20
2018-02-23T20:28:15.404Z,22.67
2018-02-23T20:30:44.606Z,24.80
2018-02-23T20:33:13.716Z,24.27
2018-02-23T20:35:42.124Z,24.80
2018-02-23T20:38:10.459Z,24.67
2018-02-23T20:40:38.737Z,22.57
2018-02-23T20:43:06.995Z,23.07
2018-02-23T20:45:36.024Z,23.10
2018-02-23T20:48:04.282Z,24.67
2018-02-23T20:50:33.362Z,27.87
2018-02-23T20:53:01.625Z,24.40
2018-02-23T20:55:29.913Z,17.77
2018-02-23T20:57:58.170Z,22.00
2018-02-23T21:00:27.213Z,25.00
2018-02-23T21:02:55.496Z,19.43
2018-02-23T21:05:23.781Z,26.03
2018-02-23T21:07:52.068Z,26.53
2018-02-23T21:10:20.369Z,27.07
2018-02-23T21:12:48.657Z,28.50
2018-02-23T21:15:16.913Z,24.43
2018-02-23T21:17:45.956Z,26.70
2018-02-23T21:20:14.252Z,25.10
2018-02-23T21:22:42.540Z,28.57
2018-02-23T21:25:10.827Z,25.50
2018-02-23T21:27:39.095Z,31.97
2018-02-23T21:30:07.356Z,23.60
2018-02-23T21:32:36.407Z,24.03
2018-02-23T21:35:04.693Z,25.13
2018-02-23T21:37:33.090Z,23.77
2018-02-23T21:40:02.032Z,21.87
2018-02-23T21:42:31.245Z,21.90
2018-02-23T21:44:59.491Z,29.40
2018-02-23T21:47:27.900Z,26.80
2018-02-23T21:49:56.156Z,29.10
2018-02-23T21:52:24.422Z,21.23
2018-02-23T21:54:53.439Z,24.70
2018-02-23T21:57:21.720Z,20.70
2018-02-23T21:59:50.745Z,22.93
2018-02-23T22:02:19.252Z,26.63
2018-02-23T22:04:47.594Z,23.90
2018-02-23T22:07:16.740Z,30.50
2018-02-23T22:09:45.152Z,24.37
2018-02-23T22:12:13.471Z,23.20
2018-02-23T22:14:41.939Z,25.53
2018-02-23T22:17:10.240Z,32.27
2018-02-23T22:19:38.690Z,26.13
2018-02-23T22:22:07.160Z,25.67
2018-02-23T22:24:36.362Z,27.83
2018-02-23T22:27:05.656Z,24.67
2018-02-23T22:29:33.962Z,30.90
2018-02-23T22:32:02.330Z,28.23
2018-02-23T22:34:30.696Z,33.10
2018-02-23T22:37:00.476Z,26.13
2018-02-23T22:39:28.756Z,28.37
2018-02-23T22:41:57.050Z,30.47
2018-02-23T22:44:25.475Z,20.73
2018-02-23T22:46:53.804Z,24.63
2018-02-23T22:49:22.569Z,27.37
2018-02-23T22:51:50.876Z,22.93
2018-02-23T22:54:19.253Z,25.53
2018-02-23T22:56:47.640Z,26.50
2018-02-23T22:59:16.029Z,22.23
2018-02-23T23:01:44.400Z,22.43
2018-02-23T23:04:13.531Z,32.63
2018-02-23T23:06:42.077Z,28.83
2018-02-23T23:09:10.490Z,27.13
2018-02-23T23:11:38.897Z,28.47
2018-02-23T23:14:08.002Z,26.93
2018-02-23T23:16:37.047Z,22.37
2018-02-23T23:19:05.304Z,21.13
2018-02-23T23:21:34.372Z,23.17
2018-02-23T23:24:02.701Z,24.53
2018-02-23T23:26:31.737Z,24.97
2018-02-23T23:29:00.074Z,23.47
2018-02-23T23:31:28.324Z,23.10
2018-02-23T23:33:56.601Z,28.57
2018-02-23T23:36:25.580Z,29.07
2018-02-23T23:38:54.627Z,23.53
2018-02-23T23:41:22.911Z,26.63
2018-02-23T23:43:51.183Z,21.33
2018-02-23T23:46:20.213Z,22.07
2018-02-23T23:48:48.485Z,23.43
2018-02-23T23:51:16.762Z,22.60
2018-02-23T23:53:45.832Z,26.10
2018-02-23T23:56:14.131Z,30.40
2018-02-23T23:58:42.436Z,21.57
